createdAt,value
2018-10-07T00:00:12.397Z,85.50
2018-10-07T00:02:40.965Z,85.70
2018-10-07T00:05:09.443Z,86.10
2018-10-07T00:07:37.942Z,86.30
2018-10-07T00:10:06.595Z,86.30
2018-10-07T00:12:35.086Z,86.40
2018-10-07T00:15:03.590Z,86.30
2018-10-07T00:17:32.099Z,86.70
2018-10-07T00:20:00.898Z,87.20
2018-10-07T00:22:29.373Z,86.90
2018-10-07T00:24:58.196Z,87.60
2018-10-07T00:27:26.711Z,86.90
2018-10-07T00:29:55.189Z,86.50
2018-10-07T00:32:23.690Z,86.90
2018-10-07T00:34:52.195Z,86.90
2018-10-07T00:37:20.669Z,86.90
2018-10-07T00:39:49.145Z,87.50
2018-10-07T00:42:17.654Z,87.00
2018-10-07T00:44:46.140Z,87.20
2018-10-07T00:47:14.702Z,87.10
2018-10-07T00:49:43.214Z,86.90
2018-10-07T00:52:11.720Z,87.50
2018-10-07T00:54:40.252Z,87.10
2018-10-07T00:57:08.719Z,87.20
2018-10-07T00:59:37.190Z,86.70
2018-10-07T01:02:05.723Z,86.90
2018-10-07T01:04:34.208Z,86.60
2018-10-07T01:07:02.725Z,86.90
2018-10-07T01:09:31.216Z,87.20
2018-10-07T01:11:59.734Z,85.60
2018-10-07T01:14:28.500Z,86.10
2018-10-07T01:16:56.979Z,86.40
2018-10-07T01:19:25.771Z,87.20
2018-10-07T01:21:54.239Z,86.90
2018-10-07T01:24:22.746Z,87.00
2018-10-07T01:26:51.334Z,86.70
2018-10-07T01:29:19.816Z,86.90
2018-10-07T01:31:48.311Z,86.90
2018-10-07T01:34:16.814Z,87.30
2018-10-07T01:36:45.295Z,87.20
2018-10-07T01:39:13.794Z,87.00
2018-10-07T01:41:42.652Z,87.00
2018-10-07T01:44:11.133Z,86.70
2018-10-07T01:46:40.272Z,85.70
2018-10-07T01:49:08.776Z,85.90
2018-10-07T01:51:37.606Z,86.40
2018-10-07T01:54:06.103Z,86.50
2018-10-07T01:56:34.613Z,86.10
2018-10-07T01:59:03.081Z,86.70
2018-10-07T02:01:31.565Z,86.60
2018-10-07T02:04:00.046Z,86.70
2018-10-07T02:06:28.599Z,87.50
2018-10-07T02:08:57.060Z,86.60
2018-10-07T02:11:25.639Z,86.60
2018-10-07T02:13:54.118Z,86.90
2018-10-07T02:16:22.670Z,87.50
2018-10-07T02:18:51.136Z,87.30
2018-10-07T02:21:19.600Z,87.50
2018-10-07T02:23:48.071Z,88.00
2018-10-07T02:26:16.560Z,87.80
2018-10-07T02:28:45.075Z,88.00
2018-10-07T02:31:13.585Z,88.30
2018-10-07T02:33:42.106Z,88.40
2018-10-07T02:36:10.559Z,88.30
2018-10-07T02:38:39.054Z,88.60
2018-10-07T02:41:07.546Z,88.50
2018-10-07T02:43:36.386Z,88.00
2018-10-07T02:46:04.884Z,88.10
2018-10-07T02:48:33.375Z,88.10
2018-10-07T02:51:02.158Z,88.00
2018-10-07T02:53:30.723Z,87.60
2018-10-07T02:55:59.339Z,88.10
2018-10-07T02:58:28.277Z,88.00
2018-10-07T03:00:56.871Z,88.10
2018-10-07T03:03:25.393Z,87.60
2018-10-07T03:05:53.973Z,88.10
2018-10-07T03:08:22.443Z,88.30
2018-10-07T03:10:51.004Z,88.40
2018-10-07T03:13:19.503Z,88.40
2018-10-07T03:15:47.964Z,88.10
2018-10-07T03:18:16.462Z,88.10
2018-10-07T03:20:44.922Z,88.00
2018-10-07T03:23:13.505Z,88.90
2018-10-07T03:25:42.062Z,88.90
2018-10-07T03:28:10.585Z,88.90
2018-10-07T03:30:39.043Z,88.60
2018-10-07T03:33:07.515Z,89.20
2018-10-07T03:35:36.023Z,88.90
2018-10-07T03:38:04.806Z,89.20
2018-10-07T03:40:33.499Z,89.10
2018-10-07T03:43:02.048Z,89.40
2018-10-07T03:45:30.530Z,89.60
2018-10-07T03:47:59.026Z,90.00
2018-10-07T03:50:27.486Z,89.90
2018-10-07T03:52:56.002Z,89.80
2018-10-07T03:55:24.493Z,89.60
2018-10-07T03:57:53.006Z,89.80
2018-10-07T04:00:21.503Z,90.00
2018-10-07T04:02:50.018Z,90.10
2018-10-07T04:05:18.563Z,90.00
2018-10-07T04:07:47.098Z,90.30
2018-10-07T04:10:15.559Z,90.20
2018-10-07T04:12:44.055Z,90.30
2018-10-07T04:15:12.524Z,90.40
2018-10-07T04:17:41.015Z,90.30
2018-10-07T04:20:09.521Z,90.50
2018-10-07T04:22:38.011Z,90.70
2018-10-07T04:25:06.708Z,90.80
2018-10-07T04:27:35.199Z,90.80
2018-10-07T04:32:54.971Z,90.90
2018-10-07T04:35:23.521Z,91.10
2018-10-07T04:37:52.067Z,91.20
2018-10-07T04:40:20.587Z,91.30
2018-10-07T04:42:49.088Z,91.40
2018-10-07T04:45:17.631Z,91.20
2018-10-07T04:47:46.223Z,91.20
2018-10-07T04:50:14.740Z,91.20
2018-10-07T04:52:43.260Z,91.20
2018-10-07T04:55:11.771Z,91.30
2018-10-07T04:57:40.288Z,91.50
2018-10-07T05:00:08.867Z,91.40
2018-10-07T05:02:37.400Z,91.40
2018-10-07T05:05:06.112Z,91.30
2018-10-07T05:07:34.747Z,91.30
2018-10-07T05:10:14.672Z,91.10
2018-10-07T05:12:43.344Z,90.90
2018-10-07T05:15:12.032Z,91.40
2018-10-07T05:17:40.650Z,91.40
2018-10-07T05:20:09.207Z,91.40
2018-10-07T05:22:37.834Z,91.60
2018-10-07T05:25:06.612Z,91.60
2018-10-07T05:27:35.141Z,91.50
2018-10-07T05:30:04.206Z,91.50
2018-10-07T05:32:32.860Z,91.40
2018-10-07T05:35:01.340Z,91.50
2018-10-07T05:37:29.835Z,91.50
2018-10-07T05:39:58.373Z,91.70
2018-10-07T05:42:26.937Z,91.80
2018-10-07T05:44:55.474Z,91.80
2018-10-07T05:47:24.013Z,91.90
2018-10-07T05:49:52.533Z,92.00
2018-10-07T05:52:21.256Z,92.00
2018-10-07T05:54:49.823Z,92.30
2018-10-07T05:57:18.442Z,91.90
2018-10-07T05:59:47.019Z,92.00
2018-10-07T06:02:15.770Z,92.00
2018-10-07T06:04:48.445Z,92.10
2018-10-07T06:07:17.056Z,92.10
2018-10-07T06:09:45.617Z,92.10
2018-10-07T06:12:14.236Z,92.10
2018-10-07T06:14:54.182Z,92.10
2018-10-07T06:17:22.661Z,92.20
2018-10-07T06:19:51.243Z,92.50
2018-10-07T06:22:19.938Z,92.20
2018-10-07T06:24:48.460Z,92.30
2018-10-07T06:27:16.995Z,92.30
2018-10-07T06:29:45.559Z,92.30
2018-10-07T06:32:14.106Z,92.20
2018-10-07T06:34:42.639Z,92.20
2018-10-07T06:37:11.304Z,92.40
2018-10-07T06:39:39.859Z,92.40
2018-10-07T06:42:08.639Z,92.50
2018-10-07T06:44:37.215Z,92.50
2018-10-07T06:47:06.029Z,92.40
2018-10-07T06:49:34.541Z,92.40
2018-10-07T06:52:03.136Z,92.50
2018-10-07T06:54:32.045Z,92.50
2018-10-07T06:57:00.639Z,92.50
2018-10-07T06:59:29.243Z,92.40
2018-10-07T07:01:57.775Z,92.50
2018-10-07T07:04:26.325Z,92.40
2018-10-07T07:06:54.820Z,92.30
2018-10-07T07:09:23.365Z,92.40
2018-10-07T07:11:52.142Z,92.30
2018-10-07T07:14:20.673Z,92.20
2018-10-07T07:16:49.464Z,92.10
2018-10-07T07:19:17.960Z,92.10
2018-10-07T07:21:46.467Z,92.10
2018-10-07T07:24:14.991Z,92.10
2018-10-07T07:26:43.520Z,92.20
2018-10-07T07:29:12.052Z,92.00
2018-10-07T07:31:40.545Z,91.80
2018-10-07T07:34:09.098Z,91.70
2018-10-07T07:36:37.603Z,91.50
2018-10-07T07:39:07.252Z,91.10
2018-10-07T07:41:35.749Z,90.70
2018-10-07T07:44:04.279Z,90.40
2018-10-07T07:46:33.266Z,90.20
2018-10-07T07:49:01.810Z,90.20
2018-10-07T07:51:30.356Z,90.00
2018-10-07T07:53:58.855Z,89.30
2018-10-07T07:56:27.387Z,89.10
2018-10-07T07:58:55.924Z,88.60
2018-10-07T08:01:24.767Z,87.90
2018-10-07T08:03:53.285Z,87.30
2018-10-07T08:06:21.837Z,87.00
2018-10-07T08:08:50.435Z,86.40
2018-10-07T08:11:19.063Z,85.80
2018-10-07T08:13:47.593Z,86.00
2018-10-07T08:16:16.154Z,86.30
2018-10-07T08:18:44.670Z,86.50
2018-10-07T08:21:13.196Z,86.90
2018-10-07T08:23:41.741Z,85.90
2018-10-07T08:26:10.232Z,85.40
2018-10-07T08:28:38.799Z,85.90
2018-10-07T08:31:07.377Z,85.60
2018-10-07T08:33:35.915Z,84.70
2018-10-07T08:36:04.432Z,83.20
2018-10-07T08:38:33.049Z,82.50
2018-10-07T08:41:01.592Z,81.40
2018-10-07T08:43:30.156Z,82.10
2018-10-07T08:45:58.670Z,81.70
2018-10-07T08:48:27.226Z,81.80
2018-10-07T08:50:55.772Z,81.80
2018-10-07T08:53:24.327Z,82.50
2018-10-07T08:55:52.811Z,82.50
2018-10-07T08:58:21.338Z,82.70
2018-10-07T09:00:49.856Z,83.50
2018-10-07T09:03:18.499Z,84.20
2018-10-07T09:05:47.032Z,83.90
2018-10-07T09:08:15.568Z,83.30
2018-10-07T09:10:44.088Z,83.20
2018-10-07T09:13:12.652Z,83.70
2018-10-07T09:15:41.173Z,84.90
2018-10-07T09:18:09.727Z,84.10
2018-10-07T09:20:38.403Z,84.80
2018-10-07T09:23:07.426Z,85.40
2018-10-07T09:25:35.922Z,84.90
2018-10-07T09:28:04.556Z,84.90
2018-10-07T09:30:34.218Z,85.00
2018-10-07T09:33:02.761Z,84.80
2018-10-07T09:35:31.291Z,85.30
2018-10-07T09:37:59.812Z,84.90
2018-10-07T09:40:28.342Z,85.10
2018-10-07T09:42:56.924Z,84.40
2018-10-07T09:45:25.489Z,84.20
2018-10-07T09:47:54.165Z,84.30
2018-10-07T09:50:23.154Z,84.10
2018-10-07T09:52:51.916Z,84.00
2018-10-07T09:55:20.465Z,83.80
2018-10-07T09:57:48.998Z,84.30
2018-10-07T10:00:21.764Z,84.30
2018-10-07T10:02:50.303Z,85.00
2018-10-07T10:05:18.869Z,85.00
2018-10-07T10:07:47.401Z,85.40
2018-10-07T10:10:15.988Z,85.30
2018-10-07T10:12:44.493Z,86.10
2018-10-07T10:15:13.125Z,85.80
2018-10-07T10:17:46.354Z,84.50
2018-10-07T10:20:16.327Z,85.40
2018-10-07T10:24:25.781Z,84.80
2018-10-07T10:27:01.756Z,84.30
2018-10-07T10:29:32.260Z,84.60
2018-10-07T10:33:11.404Z,84.00
2018-10-07T10:37:59.486Z,84.80
2018-10-07T10:40:30.728Z,85.40
2018-10-07T10:43:02.936Z,86.20
2018-10-07T10:45:53.575Z,86.30
2018-10-07T10:48:47.677Z,86.20
2018-10-07T10:51:41.321Z,85.90
2018-10-07T10:54:14.049Z,86.40
2018-10-07T10:56:47.056Z,87.30
2018-10-07T10:59:35.515Z,86.00
2018-10-07T11:02:41.399Z,86.50
2018-10-07T11:07:23.092Z,87.30
2018-10-07T11:11:02.953Z,87.90
2018-10-07T11:13:37.268Z,87.80
2018-10-07T11:18:37.496Z,87.40
2018-10-07T11:23:51.548Z,87.70
2018-10-07T11:27:26.020Z,88.00
2018-10-07T11:31:31.316Z,87.10
2018-10-07T11:34:12.069Z,87.60
2018-10-07T11:38:55.302Z,87.50
2018-10-07T11:41:35.965Z,88.00
2018-10-07T11:44:15.144Z,88.10
2018-10-07T11:47:01.086Z,88.10
2018-10-07T11:49:39.405Z,88.50
2018-10-07T11:52:20.154Z,88.50
2018-10-07T11:54:56.741Z,88.30
2018-10-07T11:57:25.542Z,87.60
2018-10-07T11:59:54.119Z,88.00
2018-10-07T12:02:22.674Z,87.50
2018-10-07T12:04:51.567Z,87.00
2018-10-07T12:07:20.158Z,86.60
2018-10-07T12:09:48.648Z,87.00
2018-10-07T12:12:17.430Z,87.00
2018-10-07T12:14:46.552Z,86.50
2018-10-07T12:17:15.223Z,86.20
2018-10-07T12:19:43.751Z,86.20
2018-10-07T12:22:12.251Z,85.90
2018-10-07T12:24:40.769Z,86.20
2018-10-07T12:27:10.364Z,85.50
2018-10-07T12:29:39.145Z,85.30
2018-10-07T12:32:08.529Z,84.70
2018-10-07T12:34:37.059Z,83.60
2018-10-07T12:37:05.586Z,83.20
2018-10-07T12:39:34.420Z,82.90
2018-10-07T12:42:02.991Z,83.30
2018-10-07T12:44:31.520Z,82.70
2018-10-07T12:47:00.099Z,83.00
2018-10-07T12:49:28.589Z,82.40
2018-10-07T12:51:57.130Z,81.30
2018-10-07T12:54:25.698Z,82.20
2018-10-07T12:56:54.174Z,81.20
2018-10-07T12:59:22.836Z,81.90
2018-10-07T13:01:51.357Z,82.60
2018-10-07T13:04:19.908Z,82.90
2018-10-07T13:06:48.429Z,83.30
2018-10-07T13:09:16.933Z,83.40
2018-10-07T13:11:45.467Z,83.30
2018-10-07T13:14:13.975Z,82.40
2018-10-07T13:16:42.504Z,83.10
2018-10-07T13:19:11.025Z,83.00
2018-10-07T13:21:39.558Z,83.10
2018-10-07T13:24:08.103Z,82.90
2018-10-07T13:26:36.645Z,83.00
2018-10-07T13:29:05.621Z,83.00
2018-10-07T13:31:34.139Z,82.30
2018-10-07T13:34:02.686Z,82.80
2018-10-07T13:36:31.189Z,82.80
2018-10-07T13:38:59.711Z,82.90
2018-10-07T13:41:28.224Z,82.60
2018-10-07T13:43:56.736Z,82.60
2018-10-07T13:46:25.272Z,82.80
2018-10-07T13:48:53.848Z,81.50
2018-10-07T13:51:22.392Z,82.40
2018-10-07T13:53:50.901Z,81.80
2018-10-07T13:56:19.724Z,82.40
2018-10-07T13:58:48.233Z,82.70
2018-10-07T14:01:16.721Z,82.70
2018-10-07T14:03:45.259Z,82.00
2018-10-07T14:06:13.749Z,82.20
2018-10-07T14:08:42.266Z,83.70
2018-10-07T14:11:10.780Z,82.30
2018-10-07T14:13:39.312Z,82.60
2018-10-07T14:16:08.892Z,81.90
2018-10-07T14:18:37.475Z,82.60
2018-10-07T14:21:06.021Z,81.70
2018-10-07T14:23:34.543Z,81.00
2018-10-07T14:26:03.099Z,81.70
2018-10-07T14:28:31.596Z,81.90
2018-10-07T14:31:00.112Z,82.40
2018-10-07T14:33:28.627Z,82.20
2018-10-07T14:35:57.508Z,81.70
2018-10-07T14:38:26.024Z,79.90
2018-10-07T14:40:54.823Z,80.50
2018-10-07T14:43:23.335Z,80.00
2018-10-07T14:45:51.821Z,80.80
2018-10-07T14:48:20.349Z,81.00
2018-10-07T14:50:48.854Z,79.70
2018-10-07T14:53:17.370Z,79.70
2018-10-07T14:55:45.852Z,80.10
2018-10-07T14:58:14.400Z,81.40
2018-10-07T15:00:42.932Z,80.20
2018-10-07T15:03:11.458Z,80.30
2018-10-07T15:05:39.981Z,79.90
2018-10-07T15:08:08.478Z,80.30
2018-10-07T15:10:36.995Z,80.20
2018-10-07T15:13:05.623Z,79.30
2018-10-07T15:15:34.137Z,80.70
2018-10-07T15:18:02.644Z,79.70
2018-10-07T15:20:31.154Z,79.00
2018-10-07T15:22:59.932Z,79.30
2018-10-07T15:25:28.720Z,79.40
2018-10-07T15:27:57.211Z,78.60
2018-10-07T15:30:33.364Z,77.00
2018-10-07T15:33:01.859Z,78.50
2018-10-07T15:35:30.441Z,79.60
2018-10-07T15:37:58.920Z,78.20
2018-10-07T15:40:27.533Z,78.40
2018-10-07T15:42:56.093Z,78.60
2018-10-07T15:45:24.628Z,78.10
2018-10-07T15:47:53.408Z,79.40
2018-10-07T15:50:21.932Z,79.40
2018-10-07T15:52:50.424Z,78.70
2018-10-07T15:58:09.570Z,78.50
2018-10-07T16:00:38.326Z,78.90
2018-10-07T16:03:07.116Z,79.60
2018-10-07T16:05:35.685Z,80.30
2018-10-07T16:08:04.302Z,79.20
2018-10-07T16:10:32.887Z,79.60
2018-10-07T16:13:01.512Z,80.70
2018-10-07T16:15:30.077Z,80.20
2018-10-07T16:17:58.806Z,79.70
2018-10-07T16:20:27.388Z,80.10
2018-10-07T16:22:56.309Z,79.50
2018-10-07T16:25:25.157Z,80.10
2018-10-07T16:27:53.722Z,78.60
2018-10-07T16:30:22.274Z,78.80
2018-10-07T16:32:50.917Z,80.20
2018-10-07T16:35:19.482Z,78.80
2018-10-07T16:37:48.085Z,80.40
2018-10-07T16:40:16.639Z,79.10
2018-10-07T16:42:45.241Z,79.80
2018-10-07T16:45:13.871Z,80.10
2018-10-07T16:47:42.440Z,81.40
2018-10-07T16:50:11.038Z,81.50
2018-10-07T16:52:39.655Z,81.40
2018-10-07T16:55:08.278Z,81.80
2018-10-07T16:57:36.886Z,81.70
2018-10-07T17:00:05.835Z,81.70
2018-10-07T17:02:34.405Z,81.70
2018-10-07T17:05:03.392Z,81.00
2018-10-07T17:07:31.992Z,80.20
2018-10-07T17:10:00.573Z,80.40
2018-10-07T17:12:29.149Z,81.10
2018-10-07T17:14:57.796Z,81.40
2018-10-07T17:17:26.354Z,82.10
2018-10-07T17:19:54.914Z,82.30
2018-10-07T17:22:23.472Z,81.50
2018-10-07T17:24:52.042Z,81.80
2018-10-07T17:27:20.588Z,82.10
2018-10-07T17:29:49.182Z,82.60
2018-10-07T17:32:17.748Z,82.80
2018-10-07T17:34:46.318Z,83.10
2018-10-07T17:37:14.878Z,83.50
2018-10-07T17:39:43.493Z,83.60
2018-10-07T17:42:12.055Z,83.60
2018-10-07T17:44:40.574Z,82.90
2018-10-07T17:47:09.067Z,83.60
2018-10-07T17:49:37.555Z,83.30
2018-10-07T17:52:06.177Z,84.50
2018-10-07T17:54:34.960Z,84.30
2018-10-07T17:57:03.487Z,84.50
2018-10-07T17:59:32.232Z,84.40
2018-10-07T18:02:00.738Z,84.60
2018-10-07T18:04:29.247Z,84.20
2018-10-07T18:06:57.788Z,83.90
2018-10-07T18:09:26.283Z,84.10
2018-10-07T18:11:55.114Z,85.60
2018-10-07T18:14:23.973Z,84.80
2018-10-07T18:16:52.452Z,84.90
2018-10-07T18:19:21.803Z,84.50
2018-10-07T18:21:51.037Z,85.00
2018-10-07T18:24:19.555Z,85.20
2018-10-07T18:26:48.078Z,85.70
2018-10-07T18:29:16.649Z,85.20
2018-10-07T18:31:45.145Z,85.40
2018-10-07T18:34:13.729Z,85.40
2018-10-07T18:36:42.162Z,85.30
2018-10-07T18:39:10.698Z,86.10
2018-10-07T18:41:39.896Z,86.20
2018-10-07T18:44:08.701Z,86.50
2018-10-07T18:46:37.346Z,86.50
2018-10-07T18:49:06.489Z,85.90
2018-10-07T18:51:35.276Z,86.10
2018-10-07T18:54:04.024Z,86.10
2018-10-07T18:56:32.584Z,85.80
2018-10-07T18:59:01.092Z,86.50
2018-10-07T19:01:29.621Z,86.80
2018-10-07T19:03:58.123Z,87.10
2018-10-07T19:06:26.937Z,87.70
2018-10-07T19:08:55.456Z,87.70
2018-10-07T19:11:24.420Z,87.60
2018-10-07T19:13:52.927Z,87.70
2018-10-07T19:16:21.856Z,87.20
2018-10-07T19:18:50.407Z,84.80
2018-10-07T19:21:18.939Z,85.10
2018-10-07T19:23:47.474Z,85.90
2018-10-07T19:26:16.012Z,86.00
2018-10-07T19:28:44.515Z,86.70
2018-10-07T19:31:13.025Z,87.00
2018-10-07T19:33:41.580Z,86.70
2018-10-07T19:36:10.097Z,86.60
2018-10-07T19:38:38.896Z,86.40
2018-10-07T19:41:07.532Z,86.10
2018-10-07T19:43:36.367Z,86.40
2018-10-07T19:46:04.870Z,85.80
2018-10-07T19:48:33.396Z,85.70
2018-10-07T19:51:01.933Z,86.20
2018-10-07T19:53:30.422Z,86.00
2018-10-07T19:55:59.113Z,86.20
2018-10-07T19:58:27.641Z,86.20
2018-10-07T20:00:56.375Z,86.20
2018-10-07T20:03:24.940Z,86.90
2018-10-07T20:05:53.469Z,86.30
2018-10-07T20:08:21.988Z,86.20
2018-10-07T20:10:50.604Z,85.90
2018-10-07T20:13:19.173Z,85.60
2018-10-07T20:15:47.668Z,86.40
2018-10-07T20:18:16.240Z,87.10
2018-10-07T20:20:44.728Z,87.20
2018-10-07T20:23:13.255Z,87.60
2018-10-07T20:25:41.823Z,87.70
2018-10-07T20:28:10.364Z,87.50
2018-10-07T20:30:39.119Z,88.10
2018-10-07T20:33:07.979Z,87.30
2018-10-07T20:35:36.476Z,88.20
2018-10-07T20:38:05.082Z,87.50
2018-10-07T20:40:33.746Z,87.30
2018-10-07T20:43:02.194Z,87.10
2018-10-07T20:48:21.943Z,86.90
2018-10-07T20:50:50.491Z,87.40
2018-10-07T20:53:19.004Z,87.80
2018-10-07T20:55:47.540Z,87.60
2018-10-07T20:58:16.088Z,87.70
2018-10-07T21:00:44.568Z,87.90
2018-10-07T21:03:13.396Z,88.30
2018-10-07T21:05:42.459Z,88.30
2018-10-07T21:08:10.975Z,88.50
2018-10-07T21:10:39.473Z,88.40
2018-10-07T21:13:08.008Z,88.10
2018-10-07T21:15:36.496Z,88.40
2018-10-07T21:18:05.081Z,88.00
2018-10-07T21:20:33.638Z,87.90
2018-10-07T21:23:02.232Z,88.20
2018-10-07T21:25:30.744Z,88.30
2018-10-07T21:27:59.264Z,88.50
2018-10-07T21:30:27.826Z,88.60
2018-10-07T21:32:56.353Z,88.80
2018-10-07T21:35:24.839Z,88.90
2018-10-07T21:37:53.347Z,88.80
2018-10-07T21:40:21.852Z,88.50
2018-10-07T21:42:50.363Z,88.70
2018-10-07T21:45:18.884Z,89.00
2018-10-07T21:47:47.671Z,88.80
2018-10-07T21:50:16.180Z,88.70
2018-10-07T21:52:44.740Z,88.90
2018-10-07T21:55:13.333Z,89.00
2018-10-07T21:57:41.843Z,88.60
2018-10-07T22:00:10.424Z,88.20
2018-10-07T22:02:38.923Z,88.60
2018-10-07T22:05:07.500Z,88.80
2018-10-07T22:07:36.295Z,88.50
2018-10-07T22:10:05.009Z,88.30
2018-10-07T22:12:33.480Z,88.10
2018-10-07T22:15:01.991Z,88.30
2018-10-07T22:17:30.515Z,88.20
2018-10-07T22:19:59.046Z,89.50
2018-10-07T22:22:27.536Z,89.30
2018-10-07T22:24:56.059Z,89.80
2018-10-07T22:27:24.576Z,89.90
2018-10-07T22:29:53.127Z,90.00
2018-10-07T22:32:21.636Z,89.70
2018-10-07T22:34:50.399Z,89.50
2018-10-07T22:37:19.126Z,89.70
2018-10-07T22:39:47.624Z,89.90
2018-10-07T22:42:16.321Z,89.70
2018-10-07T22:44:44.864Z,89.70
2018-10-07T22:47:13.380Z,89.50
2018-10-07T22:49:41.931Z,89.60
2018-10-07T22:52:10.437Z,89.70
2018-10-07T22:54:38.952Z,90.00
2018-10-07T22:57:07.437Z,90.10
2018-10-07T22:59:35.944Z,90.00
2018-10-07T23:02:04.505Z,90.00
2018-10-07T23:04:33.010Z,89.90
2018-10-07T23:07:01.501Z,89.70
2018-10-07T23:09:30.055Z,89.40
2018-10-07T23:11:58.556Z,90.00
2018-10-07T23:14:27.104Z,90.00
2018-10-07T23:16:56.240Z,90.00
2018-10-07T23:19:24.720Z,90.10
2018-10-07T23:21:53.211Z,90.20
2018-10-07T23:24:21.747Z,90.30
2018-10-07T23:26:50.267Z,90.40
2018-10-07T23:29:18.779Z,90.90
2018-10-07T23:31:47.284Z,90.70
2018-10-07T23:34:15.768Z,90.90
2018-10-07T23:36:44.285Z,90.70
2018-10-07T23:39:12.778Z,90.50
2018-10-07T23:41:41.308Z,90.50
2018-10-07T23:44:10.355Z,90.10
2018-10-07T23:46:38.880Z,90.10
2018-10-07T23:49:07.373Z,90.40
2018-10-07T23:51:36.314Z,90.40
2018-10-07T23:54:04.714Z,90.60
2018-10-07T23:56:33.251Z,90.60
2018-10-07T23:59:01.745Z,90.70
